createdAt,value
2022-12-06T00:01:20.595Z,11.50
2022-12-06T00:03:48.517Z,15.33
2022-12-06T00:06:17.908Z,13.90
2022-12-06T00:08:45.461Z,14.03
2022-12-06T00:11:17.521Z,14.80
2022-12-06T00:13:44.828Z,13.63
2022-12-06T00:16:13.260Z,16.00
2022-12-06T00:18:41.221Z,15.00
2022-12-06T00:21:12.891Z,14.23
2022-12-06T00:23:41.002Z,15.67
2022-12-06T00:26:08.740Z,16.50
2022-12-06T00:28:36.753Z,17.60
2022-12-06T00:31:05.416Z,17.90
2022-12-06T00:33:33.289Z,17.03
2022-12-06T00:36:03.334Z,16.07
2022-12-06T00:38:30.754Z,16.60
2022-12-06T00:41:01.722Z,19.20
2022-12-06T00:43:28.901Z,16.00
2022-12-06T00:45:56.266Z,19.77
2022-12-06T00:48:23.829Z,16.27
2022-12-06T00:50:51.291Z,17.53
2022-12-06T00:53:18.539Z,15.70
2022-12-06T00:55:45.888Z,16.70
2022-12-06T00:58:13.363Z,15.70
2022-12-06T01:00:40.716Z,14.23
2022-12-06T01:03:07.947Z,13.13
2022-12-06T01:05:35.167Z,15.37
2022-12-06T01:08:02.396Z,15.53
2022-12-06T01:10:29.569Z,16.13
2022-12-06T01:12:56.656Z,14.10
2022-12-06T01:15:23.774Z,16.67
2022-12-06T01:17:50.891Z,13.23
2022-12-06T01:20:18.485Z,14.40
2022-12-06T01:22:45.607Z,12.17
2022-12-06T01:25:12.699Z,13.93
2022-12-06T01:27:39.810Z,13.60
2022-12-06T01:30:07.237Z,12.73
2022-12-06T01:32:34.372Z,14.20
2022-12-06T01:35:01.535Z,13.23
2022-12-06T01:37:28.616Z,14.93
2022-12-06T01:39:55.820Z,13.20
2022-12-06T01:42:22.961Z,15.27
2022-12-06T01:44:51.550Z,14.27
2022-12-06T01:47:29.580Z,12.57
2022-12-06T01:50:19.655Z,13.87
2022-12-06T01:52:46.732Z,15.63
2022-12-06T01:55:14.230Z,14.17
2022-12-06T01:57:41.426Z,15.73
2022-12-06T02:00:09.005Z,15.13
2022-12-06T02:02:36.168Z,15.53
2022-12-06T02:05:03.808Z,17.23
2022-12-06T02:07:32.276Z,17.60
2022-12-06T02:10:00.102Z,16.13
2022-12-06T02:12:27.364Z,16.80
2022-12-06T02:14:55.276Z,16.23
2022-12-06T02:17:22.337Z,16.43
2022-12-06T02:20:02.021Z,15.47
2022-12-06T02:22:37.496Z,17.00
2022-12-06T02:25:23.422Z,15.10
2022-12-06T02:28:13.870Z,15.10
2022-12-06T02:30:58.015Z,16.53
2022-12-06T02:33:29.222Z,16.13
2022-12-06T02:36:05.048Z,15.47
2022-12-06T02:38:44.105Z,15.23
2022-12-06T02:41:15.397Z,15.80
2022-12-06T02:43:44.550Z,17.17
2022-12-06T02:46:14.024Z,17.03
2022-12-06T02:48:42.487Z,17.20
2022-12-06T02:51:13.467Z,17.13
2022-12-06T02:53:42.933Z,15.47
2022-12-06T02:56:10.051Z,17.10
2022-12-06T02:58:37.748Z,15.47
2022-12-06T03:01:12.468Z,17.30
2022-12-06T03:03:53.107Z,16.67
2022-12-06T03:06:20.217Z,17.37
2022-12-06T03:09:05.520Z,18.40
2022-12-06T03:11:51.529Z,19.07
2022-12-06T03:14:21.684Z,16.00
2022-12-06T03:16:51.025Z,19.13
2022-12-06T03:19:20.593Z,18.57
2022-12-06T03:21:50.573Z,19.27
2022-12-06T03:24:17.993Z,18.07
2022-12-06T03:26:47.365Z,17.50
2022-12-06T03:29:15.511Z,22.93
2022-12-06T03:31:42.885Z,18.53
2022-12-06T03:34:23.847Z,18.63
2022-12-06T03:36:51.834Z,19.97
2022-12-06T03:39:42.415Z,21.20
2022-12-06T03:42:09.794Z,21.17
2022-12-06T03:44:37.156Z,23.73
2022-12-06T03:47:27.827Z,23.93
2022-12-06T03:49:57.777Z,19.77
2022-12-06T03:52:25.463Z,21.47
2022-12-06T03:54:52.620Z,22.20
2022-12-06T03:57:19.801Z,24.70
2022-12-06T03:59:47.221Z,27.53
2022-12-06T04:02:14.471Z,23.33
2022-12-06T04:04:41.663Z,25.13
2022-12-06T04:07:10.218Z,23.73
2022-12-06T04:09:52.416Z,24.43
2022-12-06T04:12:38.501Z,25.67
2022-12-06T04:15:06.560Z,23.20
2022-12-06T04:17:52.551Z,20.40
2022-12-06T04:20:19.662Z,20.97
2022-12-06T04:23:04.915Z,23.17
2022-12-06T04:25:32.960Z,22.53
2022-12-06T04:28:18.816Z,23.77
2022-12-06T04:31:04.870Z,21.40
2022-12-06T04:33:50.612Z,21.07
2022-12-06T04:36:36.561Z,21.80
2022-12-06T04:39:03.807Z,21.73
2022-12-06T04:41:49.478Z,24.20
2022-12-06T04:44:16.676Z,21.60
2022-12-06T04:46:43.855Z,22.23
2022-12-06T04:49:10.978Z,21.93
2022-12-06T04:51:38.078Z,22.33
2022-12-06T04:54:05.613Z,20.20
2022-12-06T04:56:32.734Z,21.93
2022-12-06T04:58:59.845Z,22.33
2022-12-06T05:01:26.966Z,19.23
2022-12-06T05:03:54.105Z,21.23
2022-12-06T05:06:21.266Z,21.90
2022-12-06T05:08:48.422Z,20.57
2022-12-06T05:11:15.546Z,20.33
2022-12-06T05:13:42.692Z,22.07
2022-12-06T05:16:10.407Z,21.73
2022-12-06T05:18:37.602Z,19.93
2022-12-06T05:21:08.806Z,19.93
2022-12-06T05:23:36.449Z,19.60
2022-12-06T05:26:04.881Z,22.57
2022-12-06T05:28:32.031Z,20.00
2022-12-06T05:30:59.212Z,18.37
2022-12-06T05:33:26.501Z,21.10
2022-12-06T05:35:53.673Z,20.40
2022-12-06T05:38:20.939Z,18.13
2022-12-06T05:40:48.219Z,19.50
2022-12-06T05:43:15.363Z,18.47
2022-12-06T05:45:42.792Z,18.67
2022-12-06T05:48:10.100Z,15.53
2022-12-06T05:50:37.213Z,16.53
2022-12-06T05:53:04.483Z,15.00
2022-12-06T05:55:31.652Z,14.40
2022-12-06T05:57:58.822Z,15.47
2022-12-06T06:00:26.046Z,14.70
2022-12-06T06:02:53.265Z,15.87
2022-12-06T06:05:20.530Z,13.17
2022-12-06T06:07:47.704Z,14.30
2022-12-06T06:10:15.906Z,14.23
2022-12-06T06:12:44.598Z,11.93
2022-12-06T06:15:12.820Z,12.37
2022-12-06T06:17:40.468Z,14.57
2022-12-06T06:20:08.607Z,13.27
2022-12-06T06:22:36.441Z,12.37
2022-12-06T06:25:03.690Z,12.03
2022-12-06T06:27:33.842Z,12.53
2022-12-06T06:30:01.138Z,12.73
2022-12-06T06:32:28.429Z,12.90
2022-12-06T06:34:55.552Z,11.93
2022-12-06T06:37:22.677Z,14.47
2022-12-06T06:39:50.104Z,14.60
2022-12-06T06:42:17.995Z,12.90
2022-12-06T06:44:45.512Z,12.23
2022-12-06T06:47:12.727Z,15.83
2022-12-06T06:49:40.847Z,13.73
2022-12-06T06:52:07.978Z,13.47
2022-12-06T06:54:35.079Z,13.77
2022-12-06T06:57:03.035Z,11.83
2022-12-06T06:59:30.311Z,12.93
2022-12-06T07:01:57.571Z,13.27
2022-12-06T07:04:24.850Z,10.60
2022-12-06T07:06:51.969Z,12.20
2022-12-06T07:09:19.160Z,11.47
2022-12-06T07:11:46.335Z,11.43
2022-12-06T07:14:13.459Z,12.47
2022-12-06T07:16:40.573Z,11.67
2022-12-06T07:19:09.158Z,11.70
2022-12-06T07:21:36.562Z,10.27
2022-12-06T07:24:03.685Z,18.00
2022-12-06T07:26:30.840Z,10.93
2022-12-06T07:28:57.955Z,11.87
2022-12-06T07:31:26.314Z,12.10
2022-12-06T07:33:54.842Z,14.37
2022-12-06T07:36:23.243Z,15.30
2022-12-06T07:38:51.429Z,14.53
2022-12-06T07:41:38.568Z,13.90
2022-12-06T07:44:24.537Z,12.00
2022-12-06T07:46:51.641Z,12.80
2022-12-06T07:49:19.378Z,13.43
2022-12-06T07:51:46.594Z,12.53
2022-12-06T07:54:14.357Z,11.67
2022-12-06T07:56:41.903Z,18.60
2022-12-06T07:59:09.042Z,12.73
2022-12-06T08:01:36.182Z,12.60
2022-12-06T08:04:04.690Z,11.20
2022-12-06T08:06:32.754Z,11.87
2022-12-06T08:09:00.146Z,12.03
2022-12-06T08:11:27.310Z,9.27
2022-12-06T08:13:54.415Z,12.70
2022-12-06T08:16:21.620Z,9.30
2022-12-06T08:18:48.829Z,9.50
2022-12-06T08:21:16.600Z,8.80
2022-12-06T08:23:43.742Z,9.57
2022-12-06T08:26:12.687Z,10.33
2022-12-06T08:28:40.129Z,13.63
2022-12-06T08:31:08.863Z,10.47
2022-12-06T08:33:36.452Z,10.50
2022-12-06T08:36:08.878Z,10.33
2022-12-06T08:38:36.998Z,11.20
2022-12-06T08:41:04.520Z,11.67
2022-12-06T08:43:31.994Z,13.77
2022-12-06T08:45:59.497Z,10.73
2022-12-06T08:48:27.642Z,12.43
2022-12-06T08:50:54.749Z,15.10
2022-12-06T08:53:21.858Z,12.57
2022-12-06T08:56:02.076Z,12.40
2022-12-06T08:58:29.709Z,13.50
2022-12-06T09:00:56.877Z,11.70
2022-12-06T09:03:23.948Z,12.67
2022-12-06T09:05:51.045Z,15.47
2022-12-06T09:08:18.436Z,13.77
2022-12-06T09:10:45.613Z,12.37
2022-12-06T09:13:12.700Z,12.70
2022-12-06T09:15:39.890Z,15.40
2022-12-06T09:18:07.050Z,15.37
2022-12-06T09:20:34.160Z,18.90
2022-12-06T09:23:01.295Z,15.43
2022-12-06T09:25:28.414Z,13.37
2022-12-06T09:27:55.522Z,11.43
2022-12-06T09:30:22.619Z,12.03
2022-12-06T09:32:49.741Z,10.67
2022-12-06T09:35:20.833Z,10.37
2022-12-06T09:37:50.857Z,10.87
2022-12-06T09:40:22.812Z,11.20
2022-12-06T09:42:59.122Z,12.57
2022-12-06T09:45:35.478Z,10.47
2022-12-06T09:48:08.684Z,9.60
2022-12-06T09:50:35.738Z,11.10
2022-12-06T09:53:10.307Z,11.03
2022-12-06T09:55:40.507Z,13.27
2022-12-06T09:58:07.589Z,10.07
2022-12-06T10:00:54.942Z,9.73
2022-12-06T10:03:40.865Z,11.77
2022-12-06T10:06:13.777Z,10.07
2022-12-06T10:08:40.978Z,11.07
2022-12-06T10:11:16.915Z,12.43
2022-12-06T10:13:46.853Z,11.10
2022-12-06T10:16:25.968Z,10.67
2022-12-06T10:19:11.839Z,11.53
2022-12-06T10:21:57.531Z,9.23
2022-12-06T10:24:43.475Z,9.53
2022-12-06T10:27:20.918Z,10.27
2022-12-06T10:29:54.447Z,10.43
2022-12-06T10:32:24.310Z,10.50
2022-12-06T10:34:56.311Z,11.77
2022-12-06T10:37:32.546Z,11.07
2022-12-06T10:40:34.885Z,10.20
2022-12-06T10:43:24.903Z,11.90
2022-12-06T10:46:30.814Z,10.77
2022-12-06T10:49:02.510Z,8.37
2022-12-06T10:51:35.747Z,9.57
2022-12-06T10:54:09.564Z,9.53
2022-12-06T10:56:38.669Z,9.43
2022-12-06T10:59:11.566Z,9.33
2022-12-06T11:01:41.589Z,10.73
2022-12-06T11:04:16.904Z,10.90
2022-12-06T11:06:51.588Z,10.47
2022-12-06T11:09:30.463Z,9.60
2022-12-06T11:11:58.011Z,11.33
2022-12-06T11:14:37.826Z,11.83
2022-12-06T11:17:06.451Z,10.53
2022-12-06T11:19:38.650Z,11.70
2022-12-06T11:22:11.735Z,10.60
2022-12-06T11:24:53.107Z,10.10
2022-12-06T11:27:24.906Z,10.67
2022-12-06T11:29:53.244Z,10.47
2022-12-06T11:32:20.474Z,11.63
2022-12-06T11:34:52.011Z,14.23
2022-12-06T11:37:21.197Z,10.97
2022-12-06T11:39:49.821Z,10.17
2022-12-06T11:42:19.350Z,9.23
2022-12-06T11:45:05.066Z,11.07
2022-12-06T11:47:32.375Z,10.70
2022-12-06T11:50:04.198Z,10.17
2022-12-06T11:52:37.910Z,10.43
2022-12-06T11:55:07.915Z,10.13
2022-12-06T11:57:41.827Z,9.60
2022-12-06T12:00:09.152Z,9.63
2022-12-06T12:02:36.434Z,9.13
2022-12-06T12:05:11.439Z,9.70
2022-12-06T12:07:39.879Z,9.77
2022-12-06T12:10:24.149Z,10.83
2022-12-06T12:13:10.170Z,10.93
2022-12-06T12:15:37.495Z,10.53
2022-12-06T12:18:05.102Z,10.23
2022-12-06T12:20:38.356Z,11.07
2022-12-06T12:23:07.117Z,11.97
2022-12-06T12:25:36.535Z,10.23
2022-12-06T12:28:23.599Z,10.57
2022-12-06T12:30:55.020Z,12.33
2022-12-06T12:33:23.726Z,10.57
2022-12-06T12:35:52.738Z,11.17
2022-12-06T12:38:19.876Z,12.00
2022-12-06T12:40:48.724Z,11.17
2022-12-06T12:43:15.838Z,10.70
2022-12-06T12:46:02.879Z,11.20
2022-12-06T12:48:30.541Z,12.97
2022-12-06T12:50:59.417Z,12.30
2022-12-06T12:53:36.610Z,12.40
2022-12-06T12:56:15.724Z,10.63
2022-12-06T12:58:43.522Z,13.10
2022-12-06T13:01:13.759Z,10.53
2022-12-06T13:03:51.252Z,12.30
2022-12-06T13:06:28.508Z,12.20
2022-12-06T13:08:57.329Z,13.20
2022-12-06T13:11:24.492Z,11.37
2022-12-06T13:13:54.312Z,12.33
2022-12-06T13:16:35.949Z,12.23
2022-12-06T13:19:03.395Z,13.83
2022-12-06T13:21:35.335Z,10.93
2022-12-06T13:24:13.793Z,12.60
2022-12-06T13:26:43.847Z,12.13
2022-12-06T13:29:19.954Z,11.43
2022-12-06T13:31:48.864Z,11.00
2022-12-06T13:34:20.854Z,12.63
2022-12-06T13:36:48.044Z,12.90
2022-12-06T13:39:33.624Z,12.37
2022-12-06T13:42:19.701Z,14.57
2022-12-06T13:44:55.081Z,11.60
2022-12-06T13:47:28.322Z,11.57
2022-12-06T13:49:55.366Z,12.03
2022-12-06T13:52:41.310Z,11.20
2022-12-06T13:55:27.029Z,10.93
2022-12-06T13:58:00.370Z,9.40
2022-12-06T14:00:30.345Z,9.60
2022-12-06T14:02:58.539Z,9.57
2022-12-06T14:05:44.567Z,10.67
2022-12-06T14:08:15.170Z,10.97
2022-12-06T14:10:42.333Z,9.03
2022-12-06T14:13:15.086Z,8.97
2022-12-06T14:15:45.971Z,9.23
2022-12-06T14:18:18.716Z,11.17
2022-12-06T14:20:48.069Z,11.43
2022-12-06T14:23:26.357Z,10.90
2022-12-06T14:26:11.208Z,10.17
2022-12-06T14:28:38.295Z,9.80
2022-12-06T14:31:06.302Z,10.10
2022-12-06T14:33:33.532Z,8.53
2022-12-06T14:36:00.764Z,8.90
2022-12-06T14:38:29.081Z,9.20
2022-12-06T14:41:15.263Z,9.47
2022-12-06T14:43:42.995Z,9.30
2022-12-06T14:46:14.020Z,9.27
2022-12-06T14:49:00.232Z,8.70
2022-12-06T14:51:34.258Z,9.33
2022-12-06T14:54:36.895Z,8.93
2022-12-06T14:57:04.625Z,9.30
2022-12-06T15:00:13.589Z,8.73
2022-12-06T15:02:23.741Z,11.90
2022-12-06T15:04:51.058Z,11.10
2022-12-06T15:07:36.777Z,10.17
2022-12-06T15:10:22.557Z,8.93
2022-12-06T15:12:56.840Z,9.73
2022-12-06T15:15:38.143Z,8.23
2022-12-06T15:18:13.806Z,8.23
2022-12-06T15:20:41.075Z,7.57
2022-12-06T15:23:20.125Z,8.60
2022-12-06T15:25:47.203Z,9.00
2022-12-06T15:28:18.404Z,10.33
2022-12-06T15:30:46.975Z,9.23
2022-12-06T15:33:21.668Z,9.27
2022-12-06T15:35:48.935Z,9.00
2022-12-06T15:38:16.055Z,9.10
2022-12-06T15:40:44.486Z,9.97
2022-12-06T15:43:32.152Z,9.73
2022-12-06T15:46:03.329Z,9.23
2022-12-06T15:48:31.291Z,10.10
2022-12-06T15:51:00.337Z,9.10
2022-12-06T15:53:29.264Z,10.63
2022-12-06T15:55:57.041Z,9.50
2022-12-06T15:58:24.182Z,9.33
2022-12-06T16:00:51.411Z,8.77
2022-12-06T16:03:18.622Z,8.70
2022-12-06T16:05:45.797Z,8.53
2022-12-06T16:08:13.015Z,9.00
2022-12-06T16:11:10.173Z,7.73
2022-12-06T16:13:27.277Z,8.93
2022-12-06T16:15:54.465Z,7.80
2022-12-06T16:18:21.557Z,9.53
2022-12-06T16:20:49.241Z,10.37
2022-12-06T16:24:04.732Z,9.43
2022-12-06T16:26:24.000Z,13.20
2022-12-06T16:28:51.095Z,17.20
2022-12-06T16:31:18.296Z,16.87
2022-12-06T16:33:45.411Z,14.33
2022-12-06T16:36:12.732Z,16.37
2022-12-06T16:38:39.953Z,17.07
2022-12-06T16:41:08.364Z,14.90
2022-12-06T16:43:35.505Z,15.20
2022-12-06T16:46:19.483Z,16.00
2022-12-06T16:48:50.076Z,13.27
2022-12-06T16:51:21.339Z,14.07
2022-12-06T16:53:48.518Z,14.00
2022-12-06T16:56:15.731Z,15.07
2022-12-06T16:58:42.855Z,14.57
2022-12-06T17:01:21.586Z,13.60
2022-12-06T17:03:52.264Z,15.03
2022-12-06T17:06:19.571Z,13.90
2022-12-06T17:08:46.741Z,14.00
2022-12-06T17:11:34.030Z,17.23
2022-12-06T17:14:01.181Z,15.10
2022-12-06T17:16:29.549Z,13.57
2022-12-06T17:18:57.031Z,15.17
2022-12-06T17:21:24.163Z,13.67
2022-12-06T17:23:51.321Z,14.87
2022-12-06T17:26:18.542Z,12.83
2022-12-06T17:28:45.737Z,16.67
2022-12-06T17:31:12.894Z,17.87
2022-12-06T17:33:40.022Z,14.03
2022-12-06T17:36:08.233Z,11.60
2022-12-06T17:38:35.739Z,13.10
2022-12-06T17:41:22.780Z,14.47
2022-12-06T17:43:49.926Z,12.67
2022-12-06T17:46:17.160Z,15.30
2022-12-06T17:48:44.961Z,20.17
2022-12-06T17:51:12.264Z,14.13
2022-12-06T17:53:39.381Z,12.83
2022-12-06T17:56:30.662Z,13.97
2022-12-06T17:58:58.907Z,11.50
2022-12-06T18:01:34.943Z,11.73
2022-12-06T18:04:13.358Z,12.10
2022-12-06T18:06:41.997Z,12.23
2022-12-06T18:09:10.258Z,11.70
2022-12-06T18:11:37.641Z,13.23
2022-12-06T18:14:05.133Z,13.30
2022-12-06T18:16:33.711Z,15.03
2022-12-06T18:19:07.209Z,14.23
2022-12-06T18:21:36.542Z,13.87
2022-12-06T18:24:25.554Z,13.80
2022-12-06T18:26:54.565Z,12.47
2022-12-06T18:29:22.812Z,12.83
2022-12-06T18:31:50.523Z,13.60
2022-12-06T18:34:17.772Z,14.47
2022-12-06T18:36:44.873Z,15.07
2022-12-06T18:39:15.261Z,14.20
2022-12-06T18:41:44.080Z,15.43
2022-12-06T18:44:11.827Z,15.27
2022-12-06T18:46:39.518Z,14.77
2022-12-06T18:49:07.227Z,14.73
2022-12-06T18:51:35.697Z,14.87
2022-12-06T18:54:04.563Z,13.57
2022-12-06T18:56:32.430Z,15.50
2022-12-06T18:59:00.289Z,13.83
2022-12-06T19:01:29.002Z,13.47
2022-12-06T19:03:57.370Z,13.90
2022-12-06T19:06:25.819Z,13.13
2022-12-06T19:08:53.956Z,15.40
2022-12-06T19:11:21.915Z,14.23
2022-12-06T19:13:52.061Z,14.80
2022-12-06T19:16:23.142Z,14.63
2022-12-06T19:18:50.822Z,13.07
2022-12-06T19:21:18.321Z,12.57
2022-12-06T19:23:45.869Z,14.63
2022-12-06T19:26:13.765Z,13.47
2022-12-06T19:28:41.699Z,17.37
2022-12-06T19:31:10.635Z,15.70
2022-12-06T19:33:39.124Z,17.40
2022-12-06T19:36:07.728Z,19.73
2022-12-06T19:38:35.008Z,14.73
2022-12-06T19:41:06.239Z,13.97
2022-12-06T19:43:52.159Z,16.90
2022-12-06T19:46:25.740Z,19.03
2022-12-06T19:49:05.446Z,15.40
2022-12-06T19:51:34.699Z,26.33
2022-12-06T19:54:01.914Z,22.00
2022-12-06T19:56:29.305Z,21.60
2022-12-06T19:58:59.587Z,18.27
2022-12-06T20:01:30.166Z,17.07
2022-12-06T20:03:57.508Z,17.40
2022-12-06T20:06:26.064Z,17.97
2022-12-06T20:08:55.013Z,18.63
2022-12-06T20:11:41.638Z,17.37
2022-12-06T20:14:13.031Z,16.47
2022-12-06T20:16:40.383Z,15.93
2022-12-06T20:19:07.877Z,17.50
2022-12-06T20:21:35.455Z,13.83
2022-12-06T20:24:02.950Z,13.67
2022-12-06T20:26:31.996Z,14.23
2022-12-06T20:28:59.597Z,14.07
2022-12-06T20:31:27.661Z,13.37
2022-12-06T20:34:00.100Z,15.07
2022-12-06T20:36:27.622Z,14.37
2022-12-06T20:38:55.515Z,15.43
2022-12-06T20:41:24.215Z,16.07
2022-12-06T20:43:51.720Z,14.60
2022-12-06T20:46:20.162Z,15.47
2022-12-06T20:48:47.577Z,15.00
2022-12-06T20:51:16.147Z,15.67
2022-12-06T20:53:43.687Z,16.83
2022-12-06T20:56:11.687Z,18.33
2022-12-06T20:58:39.238Z,17.17
2022-12-06T21:01:06.572Z,19.43
2022-12-06T21:03:33.747Z,17.63
2022-12-06T21:06:01.803Z,17.20
2022-12-06T21:08:28.936Z,16.97
2022-12-06T21:11:21.630Z,18.53
2022-12-06T21:13:43.977Z,18.67
2022-12-06T21:16:15.539Z,18.23
2022-12-06T21:18:43.007Z,20.90
2022-12-06T21:21:10.516Z,17.50
2022-12-06T21:23:37.711Z,19.93
2022-12-06T21:26:06.523Z,17.83
2022-12-06T21:28:33.800Z,16.70
2022-12-06T21:31:01.332Z,20.53
2022-12-06T21:33:28.482Z,19.63
2022-12-06T21:35:55.612Z,21.93
2022-12-06T21:38:22.765Z,19.80
2022-12-06T21:40:54.456Z,19.53
2022-12-06T21:43:23.537Z,21.00
2022-12-06T21:45:50.630Z,21.50
2022-12-06T21:48:17.741Z,20.03
2022-12-06T21:50:44.854Z,19.90
2022-12-06T21:53:11.944Z,19.50
2022-12-06T21:55:39.371Z,17.67
2022-12-06T21:58:06.490Z,17.83
2022-12-06T22:00:33.589Z,17.20
2022-12-06T22:03:00.716Z,16.07
2022-12-06T22:05:27.897Z,21.87
2022-12-06T22:07:55.135Z,20.17
2022-12-06T22:10:22.269Z,17.80
2022-12-06T22:12:49.369Z,19.07
2022-12-06T22:15:16.617Z,21.20
2022-12-06T22:17:43.733Z,18.03
2022-12-06T22:20:10.994Z,18.30
2022-12-06T22:22:38.149Z,20.10
2022-12-06T22:25:05.517Z,17.40
2022-12-06T22:27:32.691Z,19.00
2022-12-06T22:29:59.908Z,18.53
2022-12-06T22:32:27.277Z,19.07
2022-12-06T22:34:54.393Z,17.77
2022-12-06T22:37:26.844Z,17.70
2022-12-06T22:39:55.545Z,18.47
2022-12-06T22:42:22.657Z,18.23
2022-12-06T22:44:49.768Z,20.23
2022-12-06T22:47:16.876Z,18.90
2022-12-06T22:49:44.015Z,19.60
2022-12-06T22:52:11.124Z,18.90
2022-12-06T22:54:38.207Z,20.50
2022-12-06T22:57:05.308Z,19.77
2022-12-06T22:59:32.375Z,21.10
2022-12-06T23:01:59.521Z,22.30
2022-12-06T23:04:26.686Z,21.33
2022-12-06T23:06:53.821Z,21.63
2022-12-06T23:09:21.001Z,18.97
2022-12-06T23:11:48.156Z,21.10
2022-12-06T23:14:15.452Z,19.73
2022-12-06T23:16:45.025Z,20.63
2022-12-06T23:19:12.325Z,21.63
2022-12-06T23:21:40.815Z,22.43
2022-12-06T23:24:08.960Z,23.80
2022-12-06T23:26:37.373Z,20.30
2022-12-06T23:29:04.794Z,21.97
2022-12-06T23:31:33.521Z,24.57
2022-12-06T23:34:03.030Z,20.37
2022-12-06T23:36:31.473Z,23.63
2022-12-06T23:38:58.723Z,25.60
2022-12-06T23:41:27.632Z,23.00
2022-12-06T23:43:55.177Z,27.47
2022-12-06T23:46:24.184Z,26.00
2022-12-06T23:48:51.845Z,26.20
2022-12-06T23:51:20.318Z,26.27
2022-12-06T23:53:50.998Z,27.63
2022-12-06T23:56:19.261Z,27.20
2022-12-06T23:58:46.524Z,23.87
